createdAt,value
2018-09-20T00:00:59.905Z,98312.08
2018-09-20T00:03:28.215Z,98308.16
2018-09-20T00:05:56.513Z,98308.84
2018-09-20T00:08:25.371Z,98302.58
2018-09-20T00:10:53.696Z,98303.13
2018-09-20T00:13:21.990Z,98304.72
2018-09-20T00:15:50.282Z,98298.55
2018-09-20T00:18:18.598Z,98300.77
2018-09-20T00:20:46.890Z,98301.28
2018-09-20T00:23:15.186Z,98294.44
2018-09-20T00:25:43.471Z,98302.88
2018-09-20T00:28:11.783Z,98295.14
2018-09-20T00:30:40.085Z,98294.30
2018-09-20T00:33:08.391Z,98290.11
2018-09-20T00:35:36.688Z,98291.13
2018-09-20T00:38:05.002Z,98294.57
2018-09-20T00:40:33.301Z,98291.27
2018-09-20T00:43:01.586Z,98302.13
2018-09-20T00:45:29.886Z,98297.73
2018-09-20T00:47:58.178Z,98298.55
2018-09-20T00:50:26.502Z,98300.53
2018-09-20T00:52:54.803Z,98300.09
2018-09-20T00:55:23.119Z,98296.14
2018-09-20T00:57:51.430Z,98292.32
2018-09-20T01:00:19.731Z,98296.65
2018-09-20T01:02:48.026Z,98288.13
2018-09-20T01:05:16.322Z,98287.34
2018-09-20T01:07:44.641Z,98287.38
2018-09-20T01:10:12.938Z,98286.97
2018-09-20T01:12:41.246Z,98288.38
2018-09-20T01:15:09.538Z,98283.73
2018-09-20T01:17:37.832Z,98286.33
2018-09-20T01:20:06.159Z,98284.98
2018-09-20T01:22:34.442Z,98282.86
2018-09-20T01:25:02.746Z,98289.33
2018-09-20T01:27:31.042Z,98294.91
2018-09-20T01:29:59.350Z,98288.58
2018-09-20T01:32:27.646Z,98292.47
2018-09-20T01:34:55.938Z,98294.03
2018-09-20T01:37:24.247Z,98288.43
2018-09-20T01:46:51.002Z,98284.38
2018-09-20T01:49:19.308Z,98281.51
2018-09-20T01:51:47.595Z,98276.88
2018-09-20T01:54:15.894Z,98277.98
2018-09-20T01:56:44.190Z,98287.09
2018-09-20T01:59:12.498Z,98285.33
2018-09-20T02:01:40.790Z,98284.44
2018-09-20T02:04:09.094Z,98284.13
2018-09-20T02:06:37.386Z,98284.94
2018-09-20T02:09:05.674Z,98285.52
2018-09-20T02:11:33.978Z,98283.55
2018-09-20T02:14:02.274Z,98285.64
2018-09-20T02:16:30.582Z,98283.98
2018-09-20T02:18:58.875Z,98285.89
2018-09-20T02:21:27.174Z,98292.84
2018-09-20T02:23:55.462Z,98294.73
2018-09-20T02:26:23.762Z,98293.87
2018-09-20T02:28:52.057Z,98290.71
2018-09-20T02:31:20.350Z,98296.09
2018-09-20T02:33:48.656Z,98294.28
2018-09-20T02:36:16.947Z,98294.40
2018-09-20T02:38:45.247Z,98289.98
2018-09-20T02:41:13.540Z,98292.93
2018-09-20T02:43:41.834Z,98295.84
2018-09-20T02:46:10.130Z,98297.16
2018-09-20T02:48:38.422Z,98305.69
2018-09-20T02:51:06.726Z,98299.45
2018-09-20T02:53:35.029Z,98303.14
2018-09-20T02:56:03.339Z,98302.56
2018-09-20T02:58:31.623Z,98295.44
2018-09-20T03:00:59.906Z,98294.20
2018-09-20T03:03:28.215Z,98290.34
2018-09-20T03:05:56.502Z,98287.27
2018-09-20T03:08:24.805Z,98288.02
2018-09-20T03:10:53.098Z,98293.05
2018-09-20T03:13:21.402Z,98292.06
2018-09-20T03:15:49.698Z,98287.95
2018-09-20T03:18:18.003Z,98289.19
2018-09-20T03:20:46.302Z,98288.44
2018-09-20T03:23:14.591Z,98291.80
2018-09-20T03:25:42.894Z,98293.09
2018-09-20T03:28:11.207Z,98289.58
2018-09-20T03:30:39.591Z,98291.80
2018-09-20T03:33:07.803Z,98285.64
2018-09-20T03:35:36.091Z,98285.19
2018-09-20T03:38:04.386Z,98290.95
2018-09-20T03:40:32.678Z,98291.03
2018-09-20T03:43:01.008Z,98295.85
2018-09-20T03:45:29.318Z,98293.19
2018-09-20T03:47:57.590Z,98294.22
2018-09-20T03:50:25.892Z,98289.83
2018-09-20T03:52:54.193Z,98294.25
2018-09-20T03:55:22.491Z,98299.28
2018-09-20T03:57:50.821Z,98300.06
2018-09-20T04:00:19.094Z,98302.67
2018-09-20T04:02:47.390Z,98304.55
2018-09-20T04:05:15.691Z,98299.09
2018-09-20T04:07:43.984Z,98299.19
2018-09-20T04:10:12.271Z,98301.52
2018-09-20T04:12:40.585Z,98297.31
2018-09-20T04:15:08.863Z,98294.89
2018-09-20T04:17:37.154Z,98297.67
2018-09-20T04:20:05.472Z,98297.94
2018-09-20T04:22:33.763Z,98291.13
2018-09-20T04:25:02.058Z,98294.52
2018-09-20T04:27:30.363Z,98298.70
2018-09-20T04:29:58.810Z,98285.22
2018-09-20T04:32:27.095Z,98289.61
2018-09-20T04:34:55.411Z,98290.31
2018-09-20T04:37:23.706Z,98297.28
2018-09-20T04:39:51.994Z,98295.91
2018-09-20T04:42:20.301Z,98299.13
2018-09-20T04:44:49.894Z,98303.67
2018-09-20T04:47:18.378Z,98307.48
2018-09-20T04:49:46.675Z,98297.34
2018-09-20T04:52:14.966Z,98311.24
2018-09-20T04:54:43.263Z,98308.00
2018-09-20T04:57:11.570Z,98316.27
2018-09-20T04:59:39.863Z,98319.14
2018-09-20T05:02:08.154Z,98316.81
2018-09-20T05:04:36.463Z,98316.09
2018-09-20T05:07:04.751Z,98309.36
2018-09-20T05:09:33.073Z,98319.02
2018-09-20T05:12:01.356Z,98319.30
2018-09-20T05:14:29.646Z,98327.57
2018-09-20T05:16:57.934Z,98324.78
2018-09-20T05:19:26.252Z,98325.81
2018-09-20T05:21:54.639Z,98323.60
2018-09-20T05:24:22.886Z,98323.72
2018-09-20T05:26:51.199Z,98324.20
2018-09-20T05:29:19.491Z,98314.52
2018-09-20T05:31:47.782Z,98328.36
2018-09-20T05:34:16.094Z,98326.08
2018-09-20T05:36:44.378Z,98328.33
2018-09-20T05:39:12.689Z,98328.78
2018-09-20T05:41:41.014Z,98331.30
2018-09-20T05:44:09.315Z,98331.17
2018-09-20T05:46:37.603Z,98330.87
2018-09-20T05:49:05.911Z,98326.20
2018-09-20T05:51:34.207Z,98331.23
2018-09-20T05:54:02.494Z,98340.19
2018-09-20T05:56:30.802Z,98344.36
2018-09-20T05:58:59.087Z,98338.20
2018-09-20T06:01:27.384Z,98349.90
2018-09-20T06:03:55.696Z,98344.28
2018-09-20T06:06:23.999Z,98349.78
2018-09-20T06:08:52.292Z,98348.39
2018-09-20T06:11:20.598Z,98350.72
2018-09-20T06:13:48.894Z,98355.36
2018-09-20T06:16:17.191Z,98353.67
2018-09-20T06:18:45.498Z,98356.99
2018-09-20T06:21:13.786Z,98351.41
2018-09-20T06:23:42.078Z,98356.89
2018-09-20T06:26:10.387Z,98365.30
2018-09-20T06:28:38.679Z,98361.66
2018-09-20T06:31:06.974Z,98359.23
2018-09-20T06:33:35.286Z,98365.39
2018-09-20T06:36:03.579Z,98359.80
2018-09-20T06:38:31.889Z,98358.25
2018-09-20T06:41:00.237Z,98356.34
2018-09-20T06:43:28.495Z,98358.39
2018-09-20T06:45:56.794Z,98357.95
2018-09-20T06:48:25.099Z,98358.33
2018-09-20T06:50:53.398Z,98362.44
2018-09-20T06:53:21.711Z,98356.39
2018-09-20T06:55:50.027Z,98360.80
2018-09-20T06:58:18.320Z,98356.52
2018-09-20T07:00:46.607Z,98355.58
2018-09-20T07:03:14.937Z,98359.83
2018-09-20T07:05:43.209Z,98353.02
2018-09-20T07:08:11.507Z,98357.45
2018-09-20T07:10:39.829Z,98355.93
2018-09-20T07:13:08.114Z,98360.86
2018-09-20T07:15:36.411Z,98364.20
2018-09-20T07:18:04.719Z,98360.45
2018-09-20T07:20:33.011Z,98366.62
2018-09-20T07:23:01.307Z,98359.05
2018-09-20T07:25:29.634Z,98361.38
2018-09-20T07:27:57.898Z,98359.55
2018-09-20T07:30:26.183Z,98364.66
2018-09-20T07:32:54.505Z,98370.27
2018-09-20T07:35:22.778Z,98366.22
2018-09-20T07:37:51.075Z,98366.89
2018-09-20T07:40:19.409Z,98367.53
2018-09-20T07:42:47.695Z,98370.91
2018-09-20T07:45:15.978Z,98367.38
2018-09-20T07:47:44.286Z,98365.77
2018-09-20T07:50:12.586Z,98368.86
2018-09-20T07:52:40.878Z,98369.23
2018-09-20T07:55:09.287Z,98365.47
2018-09-20T07:57:37.574Z,98364.25
2018-09-20T08:00:05.856Z,98364.30
2018-09-20T08:02:34.167Z,98363.97
2018-09-20T08:05:02.460Z,98357.42
2018-09-20T08:07:30.766Z,98363.85
2018-09-20T08:09:59.066Z,98369.66
2018-09-20T08:12:27.422Z,98362.84
2018-09-20T08:14:55.711Z,98369.77
2018-09-20T08:17:24.027Z,98363.69
2018-09-20T08:19:52.430Z,98358.73
2018-09-20T08:22:20.734Z,98361.80
2018-09-20T08:24:49.054Z,98368.75
2018-09-20T08:29:44.692Z,98363.68
2018-09-20T08:32:12.996Z,98370.08
2018-09-20T08:34:41.283Z,98360.70
2018-09-20T08:37:09.592Z,98358.98
2018-09-20T08:39:37.879Z,98361.52
2018-09-20T08:42:06.298Z,98355.62
2018-09-20T08:44:34.528Z,98350.45
2018-09-20T08:47:02.927Z,98359.47
2018-09-20T08:49:32.028Z,98355.69
2018-09-20T08:52:00.963Z,98355.35
2018-09-20T08:54:29.255Z,98358.89
2018-09-20T08:56:57.609Z,98354.61
2018-09-20T08:59:25.828Z,98351.46
2018-09-20T09:01:54.144Z,98356.27
2018-09-20T09:04:22.446Z,98362.66
2018-09-20T09:06:50.710Z,98356.11
2018-09-20T09:09:19.015Z,98353.70
2018-09-20T09:11:47.340Z,98346.35
2018-09-20T09:14:15.618Z,98345.95
2018-09-20T09:16:43.916Z,98345.55
2018-09-20T09:19:12.194Z,98342.23
2018-09-20T09:21:40.479Z,98341.23
2018-09-20T09:24:08.771Z,98345.88
2018-09-20T09:26:37.067Z,98344.09
2018-09-20T09:29:05.350Z,98338.63
2018-09-20T09:31:33.675Z,98340.47
2018-09-20T09:34:01.964Z,98330.38
2018-09-20T09:36:30.251Z,98332.03
2018-09-20T09:38:58.545Z,98328.97
2018-09-20T09:41:26.821Z,98327.38
2018-09-20T09:43:55.111Z,98329.71
2018-09-20T09:46:23.414Z,98331.33
2018-09-20T09:48:51.711Z,98325.50
2018-09-20T09:51:19.990Z,98324.87
2018-09-20T09:54:04.358Z,98315.66
2018-09-20T09:56:32.657Z,98314.59
2018-09-20T09:59:00.934Z,98304.67
2018-09-20T10:01:29.236Z,98305.22
2018-09-20T10:03:57.516Z,98299.11
2018-09-20T10:06:25.824Z,98296.50
2018-09-20T10:08:54.107Z,98296.61
2018-09-20T10:11:22.403Z,98298.97
2018-09-20T10:13:50.767Z,98286.23
2018-09-20T10:16:18.995Z,98282.30
2018-09-20T10:18:47.344Z,98284.05
2018-09-20T10:21:15.645Z,98280.44
2018-09-20T10:23:43.928Z,98277.16
2018-09-20T10:26:12.231Z,98273.77
2018-09-20T10:28:40.535Z,98278.90
2018-09-20T10:31:08.823Z,98271.66
2018-09-20T10:33:37.116Z,98278.80
2018-09-20T10:36:05.398Z,98278.55
2018-09-20T10:38:33.686Z,98275.68
2018-09-20T10:41:01.962Z,98272.58
2018-09-20T10:43:30.261Z,98268.11
2018-09-20T10:45:58.615Z,98268.65
2018-09-20T10:48:26.859Z,98260.48
2018-09-20T10:50:55.176Z,98257.83
2018-09-20T10:53:23.466Z,98250.80
2018-09-20T10:55:51.750Z,98249.58
2018-09-20T10:58:20.047Z,98251.98
2018-09-20T11:00:48.327Z,98248.34
2018-09-20T11:03:16.679Z,98240.30
2018-09-20T11:05:44.915Z,98236.28
2018-09-20T11:08:13.194Z,98242.17
2018-09-20T11:10:41.484Z,98233.79
2018-09-20T11:13:09.772Z,98225.11
2018-09-20T11:15:38.087Z,98221.85
2018-09-20T11:18:06.362Z,98221.09
2018-09-20T11:20:34.670Z,98224.83
2018-09-20T11:23:02.959Z,98226.16
2018-09-20T11:25:31.242Z,98219.55
2018-09-20T11:27:59.534Z,98220.59
2018-09-20T11:30:27.815Z,98214.98
2018-09-20T11:32:56.100Z,98200.08
2018-09-20T11:35:24.399Z,98198.33
2018-09-20T11:37:52.682Z,98194.59
2018-09-20T11:40:20.970Z,98197.53
2018-09-20T11:42:49.268Z,98199.66
2018-09-20T11:45:17.644Z,98195.26
2018-09-20T11:47:45.909Z,98191.89
2018-09-20T11:50:14.210Z,98188.77
2018-09-20T11:52:42.496Z,98188.55
2018-09-20T11:55:10.804Z,98180.66
2018-09-20T11:57:39.081Z,98182.95
2018-09-20T12:00:07.354Z,98172.60
2018-09-20T12:02:35.647Z,98171.25
2018-09-20T12:05:03.938Z,98171.26
2018-09-20T12:07:32.221Z,98163.80
2018-09-20T12:10:00.534Z,98156.33
2018-09-20T12:12:28.827Z,98156.50
2018-09-20T12:14:57.143Z,98153.30
2018-09-20T12:17:25.427Z,98147.64
2018-09-20T12:19:53.727Z,98147.36
2018-09-20T12:22:22.017Z,98143.23
2018-09-20T12:24:50.298Z,98133.86
2018-09-20T12:27:23.453Z,98127.02
2018-09-20T12:30:02.261Z,98125.73
2018-09-20T12:32:30.564Z,98120.81
2018-09-20T12:34:58.850Z,98119.34
2018-09-20T12:37:27.180Z,98106.16
2018-09-20T12:39:55.450Z,98112.89
2018-09-20T12:42:23.735Z,98105.42
2018-09-20T12:44:52.018Z,98112.69
2018-09-20T12:47:20.336Z,98108.09
2018-09-20T12:49:48.603Z,98101.25
2018-09-20T12:52:16.875Z,98096.69
2018-09-20T12:54:45.253Z,98090.44
2018-09-20T12:57:13.463Z,98089.89
2018-09-20T12:59:41.773Z,98092.30
2018-09-20T13:02:10.142Z,98089.75
2018-09-20T13:04:38.375Z,98077.78
2018-09-20T13:07:06.665Z,98078.72
2018-09-20T13:09:34.964Z,98074.65
2018-09-20T13:15:34.234Z,98071.86
2018-09-20T13:18:02.519Z,98067.91
2018-09-20T13:20:30.870Z,98061.42
2018-09-20T13:22:59.107Z,98066.61
2018-09-20T13:25:27.436Z,98059.64
2018-09-20T13:27:55.674Z,98052.97
2018-09-20T13:30:23.972Z,98044.47
2018-09-20T13:32:52.255Z,98045.89
2018-09-20T13:35:20.538Z,98037.06
2018-09-20T13:37:48.831Z,98043.19
2018-09-20T13:40:17.116Z,98038.17
2018-09-20T13:42:45.412Z,98039.58
2018-09-20T13:45:13.722Z,98032.08
2018-09-20T13:47:42.045Z,98035.97
2018-09-20T13:50:10.335Z,98032.58
2018-09-20T13:52:38.638Z,98031.72
2018-09-20T13:55:06.921Z,98036.94
2018-09-20T13:57:35.197Z,98031.08
2018-09-20T14:00:03.501Z,98036.47
2018-09-20T14:02:31.792Z,98024.73
2018-09-20T14:05:00.075Z,98029.63
2018-09-20T14:07:28.371Z,98020.94
2018-09-20T14:09:56.658Z,98017.22
2018-09-20T14:12:24.934Z,98013.58
2018-09-20T14:14:53.232Z,98006.97
2018-09-20T14:17:21.519Z,98001.33
2018-09-20T14:19:49.800Z,98000.71
2018-09-20T14:22:18.100Z,97999.09
2018-09-20T14:24:46.388Z,97996.70
2018-09-20T14:27:19.034Z,97995.73
2018-09-20T14:29:50.687Z,97994.42
2018-09-20T14:32:26.071Z,97994.56
2018-09-20T14:34:55.715Z,97995.15
2018-09-20T14:37:24.053Z,97995.15
2018-09-20T14:39:52.338Z,97992.59
2018-09-20T14:42:20.629Z,97990.51
2018-09-20T14:44:48.919Z,97983.17
2018-09-20T14:47:17.203Z,97979.16
2018-09-20T14:49:45.494Z,97984.75
2018-09-20T14:52:13.785Z,97972.16
2018-09-20T14:54:42.067Z,97978.80
2018-09-20T14:57:10.361Z,97968.70
2018-09-20T14:59:38.706Z,97971.56
2018-09-20T15:02:06.958Z,97972.34
2018-09-20T15:04:35.252Z,97965.36
2018-09-20T15:07:03.548Z,97961.23
2018-09-20T15:09:31.829Z,97960.98
2018-09-20T15:12:00.150Z,97956.58
2018-09-20T15:14:28.407Z,97957.97
2018-09-20T15:16:56.687Z,97957.44
2018-09-20T15:19:25.019Z,97953.53
2018-09-20T15:21:53.271Z,97946.09
2018-09-20T15:24:21.623Z,97947.33
2018-09-20T15:26:49.896Z,97942.52
2018-09-20T15:29:18.188Z,97942.46
2018-09-20T15:31:46.564Z,97942.81
2018-09-20T15:34:14.840Z,97939.83
2018-09-20T15:36:43.186Z,97940.88
2018-09-20T15:39:11.427Z,97929.80
2018-09-20T15:41:39.721Z,97934.33
2018-09-20T15:44:08.003Z,97935.18
2018-09-20T15:46:36.282Z,97934.73
2018-09-20T15:49:04.575Z,97932.95
2018-09-20T15:51:32.866Z,97933.06
2018-09-20T15:54:01.168Z,97932.70
2018-09-20T15:56:29.454Z,97929.42
2018-09-20T15:58:57.734Z,97937.20
2018-09-20T16:01:26.046Z,97925.30
2018-09-20T16:03:54.343Z,97928.21
2018-09-20T16:06:22.623Z,97927.64
2018-09-20T16:08:51.007Z,97929.45
2018-09-20T16:11:19.270Z,97921.49
2018-09-20T16:13:47.880Z,97921.75
2018-09-20T16:16:16.154Z,97920.24
2018-09-20T16:18:44.460Z,97925.06
2018-09-20T16:21:12.743Z,97920.14
2018-09-20T16:23:41.131Z,97922.80
2018-09-20T16:26:09.325Z,97919.73
2018-09-20T16:28:39.567Z,97915.66
2018-09-20T16:31:15.118Z,97913.51
2018-09-20T16:33:48.883Z,97914.75
2018-09-20T16:36:19.075Z,97904.06
2018-09-20T16:38:48.331Z,97903.70
2018-09-20T16:41:18.319Z,97903.02
2018-09-20T16:43:46.694Z,97899.01
2018-09-20T16:46:14.967Z,97902.28
2018-09-20T16:48:43.276Z,97907.13
2018-09-20T16:51:11.564Z,97909.80
2018-09-20T16:53:39.851Z,97909.47
2018-09-20T16:56:08.148Z,97902.02
2018-09-20T16:58:36.431Z,97907.05
2018-09-20T17:01:04.859Z,97909.57
2018-09-20T17:03:33.155Z,97902.93
2018-09-20T17:06:01.434Z,97911.86
2018-09-20T17:08:29.725Z,97910.00
2018-09-20T17:10:58.016Z,97914.78
2018-09-20T17:13:26.307Z,97912.36
2018-09-20T17:15:54.586Z,97909.76
2018-09-20T17:18:22.921Z,97914.17
2018-09-20T17:20:51.175Z,97913.19
2018-09-20T17:23:19.466Z,97913.66
2018-09-20T17:25:47.896Z,97911.95
2018-09-20T17:28:16.162Z,97911.41
2018-09-20T17:30:44.450Z,97914.97
2018-09-20T17:33:12.761Z,97918.41
2018-09-20T17:35:41.189Z,97913.05
2018-09-20T17:38:09.656Z,97912.83
2018-09-20T17:40:38.124Z,97913.70
2018-09-20T17:43:06.594Z,97917.09
2018-09-20T17:45:34.921Z,97920.01
2018-09-20T17:48:03.199Z,97912.16
2018-09-20T17:50:31.479Z,97918.95
2018-09-20T17:52:59.794Z,97918.42
2018-09-20T17:55:28.150Z,97921.77
2018-09-20T17:57:56.570Z,97925.41
2018-09-20T18:00:24.855Z,97924.51
2018-09-20T18:02:53.176Z,97926.15
2018-09-20T18:05:21.455Z,97923.61
2018-09-20T18:07:49.747Z,97923.61
2018-09-20T18:10:18.043Z,97921.48
2018-09-20T18:12:46.326Z,97924.75
2018-09-20T18:15:14.627Z,97925.40
2018-09-20T18:17:42.976Z,97923.63
2018-09-20T18:20:11.208Z,97922.06
2018-09-20T18:22:39.494Z,97918.87
2018-09-20T18:25:07.788Z,97913.44
2018-09-20T18:27:36.068Z,97921.48
2018-09-20T18:30:04.354Z,97920.91
2018-09-20T18:32:32.652Z,97923.53
2018-09-20T18:35:00.953Z,97923.38
2018-09-20T18:37:29.227Z,97924.55
2018-09-20T18:39:57.534Z,97919.94
2018-09-20T18:42:25.854Z,97923.58
2018-09-20T18:44:54.104Z,97919.77
2018-09-20T18:47:22.403Z,97925.20
2018-09-20T18:49:50.701Z,97925.36
2018-09-20T18:52:18.970Z,97926.17
2018-09-20T18:54:47.277Z,97932.62
2018-09-20T18:57:15.574Z,97939.24
2018-09-20T18:59:43.862Z,97926.40
2018-09-20T19:02:12.166Z,97923.78
2018-09-20T19:04:40.478Z,97921.17
2018-09-20T19:07:08.778Z,97930.01
2018-09-20T19:09:37.315Z,97926.58
2018-09-20T19:12:05.632Z,97924.78
2018-09-20T19:14:33.920Z,97919.75
2018-09-20T19:17:02.214Z,97920.75
2018-09-20T19:19:30.511Z,97923.56
2018-09-20T19:21:58.798Z,97927.98
2018-09-20T19:24:27.111Z,97918.13
2018-09-20T19:26:55.390Z,97916.28
2018-09-20T19:29:23.674Z,97913.06
2018-09-20T19:31:52.043Z,97912.11
2018-09-20T19:34:20.266Z,97914.14
2018-09-20T19:36:48.552Z,97915.06
2018-09-20T19:39:16.850Z,97911.66
2018-09-20T19:41:45.139Z,97911.44
2018-09-20T19:46:40.898Z,97911.98
2018-09-20T19:49:09.183Z,97913.42
2018-09-20T19:51:37.568Z,97909.76
2018-09-20T19:54:13.428Z,97907.58
2018-09-20T19:56:42.059Z,97900.70
2018-09-20T19:59:10.339Z,97899.30
2018-09-20T20:01:38.662Z,97902.95
2018-09-20T20:04:08.518Z,97900.94
2018-09-20T20:06:36.841Z,97902.08
2018-09-20T20:09:05.358Z,97900.36
2018-09-20T20:11:33.663Z,97896.32
2018-09-20T20:14:01.934Z,97891.88
2018-09-20T20:16:30.261Z,97891.92
2018-09-20T20:18:58.551Z,97887.52
2018-09-20T20:21:26.850Z,97885.49
2018-09-20T20:23:55.314Z,97884.27
2018-09-20T20:26:23.674Z,97880.06
2018-09-20T20:28:51.968Z,97880.44
2018-09-20T20:31:20.282Z,97874.35
2018-09-20T20:33:48.569Z,97867.95
2018-09-20T20:36:16.863Z,97868.73
2018-09-20T20:38:45.159Z,97866.98
2018-09-20T20:41:13.468Z,97861.36
2018-09-20T20:43:41.760Z,97867.16
2018-09-20T20:46:10.079Z,97859.87
2018-09-20T20:48:38.379Z,97863.61
2018-09-20T20:51:06.689Z,97859.60
2018-09-20T20:53:34.998Z,97861.81
2018-09-20T20:56:03.299Z,97863.33
2018-09-20T20:58:31.675Z,97860.51
2018-09-20T21:00:59.907Z,97855.20
2018-09-20T21:03:28.203Z,97856.38
2018-09-20T21:05:56.503Z,97851.34
2018-09-20T21:08:24.950Z,97856.16
2018-09-20T21:10:53.205Z,97848.67
2018-09-20T21:13:21.490Z,97848.08
2018-09-20T21:15:49.818Z,97854.91
2018-09-20T21:18:18.121Z,97847.30
2018-09-20T21:20:46.414Z,97851.70
2018-09-20T21:23:14.723Z,97849.06
2018-09-20T21:25:43.018Z,97849.88
2018-09-20T21:28:11.306Z,97847.86
2018-09-20T21:30:39.624Z,97850.66
2018-09-20T21:33:07.911Z,97845.06
2018-09-20T21:35:36.204Z,97838.83
2018-09-20T21:38:04.528Z,97835.02
2018-09-20T21:40:32.822Z,97835.59
2018-09-20T21:43:01.126Z,97833.20
2018-09-20T21:45:29.440Z,97830.38
2018-09-20T21:47:57.726Z,97826.52
2018-09-20T21:50:26.046Z,97822.69
2018-09-20T21:52:54.370Z,97817.12
2018-09-20T21:55:22.658Z,97817.28
2018-09-20T21:57:50.954Z,97816.48
2018-09-20T22:00:19.262Z,97811.89
2018-09-20T22:02:47.566Z,97811.45
2018-09-20T22:05:15.863Z,97813.02
2018-09-20T22:07:44.175Z,97808.23
2018-09-20T22:10:12.742Z,97811.45
2018-09-20T22:12:41.645Z,97804.14
2018-09-20T22:15:09.978Z,97801.94
2018-09-20T22:17:38.261Z,97800.28
2018-09-20T22:20:06.547Z,97797.84
2018-09-20T22:22:34.858Z,97801.88
2018-09-20T22:25:03.158Z,97796.54
2018-09-20T22:27:31.481Z,97795.87
2018-09-20T22:29:59.805Z,97791.84
2018-09-20T22:32:28.099Z,97788.45
2018-09-20T22:34:56.398Z,97786.08
2018-09-20T22:37:24.898Z,97783.89
2018-09-20T22:39:53.180Z,97783.70
2018-09-20T22:42:21.471Z,97779.95
2018-09-20T22:44:50.024Z,97779.08
2018-09-20T22:47:18.567Z,97782.41
2018-09-20T22:49:46.858Z,97778.22
2018-09-20T22:52:15.162Z,97770.13
2018-09-20T22:54:43.459Z,97764.12
2018-09-20T22:57:11.751Z,97769.88
2018-09-20T22:59:40.059Z,97765.20
2018-09-20T23:02:08.349Z,97759.73
2018-09-20T23:04:36.652Z,97757.62
2018-09-20T23:07:04.955Z,97752.34
2018-09-20T23:09:33.252Z,97756.70
2018-09-20T23:12:01.551Z,97755.67
2018-09-20T23:14:29.893Z,97755.03
2018-09-20T23:16:58.155Z,97750.78
2018-09-20T23:19:26.450Z,97752.91
2018-09-20T23:21:54.752Z,97749.94
2018-09-20T23:24:23.043Z,97747.75
2018-09-20T23:26:51.357Z,97739.20
2018-09-20T23:29:19.675Z,97745.22
2018-09-20T23:31:47.971Z,97745.05
2018-09-20T23:34:16.258Z,97740.15
2018-09-20T23:36:44.559Z,97740.41
2018-09-20T23:39:12.862Z,97742.03
2018-09-20T23:41:41.158Z,97736.02
2018-09-20T23:44:09.487Z,97737.31
2018-09-20T23:46:37.766Z,97730.55
2018-09-20T23:49:06.054Z,97728.32
2018-09-20T23:51:34.391Z,97729.87
2018-09-20T23:54:02.674Z,97731.81
2018-09-20T23:56:30.974Z,97724.52
2018-09-20T23:58:59.278Z,97724.13
